Time;durP1;ratioP1;P1;durP2;ratioP2;P2;SDS_P1;SDS_P2;PMS_P1;PMS_P2;Temp;Humidity;BMP_temperature;BMP_pressure;BME280_temperature;BME280_humidity;BME280_pressure;Samples;Min_cycle;Max_cycle;Signal;HPM_P1;HPM_P2
2022/11/12 00:00:35;;;;;;;19.40;8.13;;;8.90;1.00;;;;;;5073400;28;20190;-81
2022/11/12 00:03:04;;;;;;;15.10;8.30;;;8.90;1.00;;;;;;5073955;28;20193;-80
2022/11/12 00:05:32;;;;;;;15.33;7.80;;;8.90;1.00;;;;;;5073883;28;20193;-80
2022/11/12 00:07:59;;;;;;;16.30;8.67;;;9.00;1.00;;;;;;5073432;28;20226;-80
2022/11/12 00:10:27;;;;;;;12.70;8.57;;;9.00;99.90;;;;;;5073574;28;20197;-80
2022/11/12 00:12:54;;;;;;;17.40;8.50;;;9.00;99.90;;;;;;5073890;28;20300;-80
2022/11/12 00:15:21;;;;;;;14.87;8.27;;;9.00;99.90;;;;;;5073066;28;20209;-80
2022/11/12 00:17:53;;;;;;;14.00;8.63;;;9.00;99.90;;;;;;5073635;28;20192;-81
2022/11/12 00:20:22;;;;;;;14.50;9.10;;;9.00;99.90;;;;;;5073149;28;20655;-83
2022/11/12 00:22:49;;;;;;;15.27;8.23;;;9.00;99.90;;;;;;5073362;28;20532;-80
2022/11/12 00:25:16;;;;;;;14.07;7.50;;;8.90;99.90;;;;;;5072965;28;20198;-83
2022/11/12 00:27:43;;;;;;;14.03;8.10;;;8.90;99.90;;;;;;5073248;28;20220;-80
2022/11/12 00:30:11;;;;;;;16.60;7.97;;;8.80;99.90;;;;;;5073264;28;20205;-82
2022/11/12 00:32:38;;;;;;;14.87;8.37;;;8.70;99.90;;;;;;5072576;28;20232;-83
2022/11/12 00:35:07;;;;;;;14.27;8.43;;;8.70;99.90;;;;;;5073307;28;20195;-80
2022/11/12 00:37:35;;;;;;;16.13;8.70;;;8.60;99.90;;;;;;5072855;28;20253;-80
2022/11/12 00:40:02;;;;;;;15.00;8.10;;;8.50;99.90;;;;;;5072933;28;20191;-80
2022/11/12 00:42:30;;;;;;;17.33;8.10;;;8.40;99.90;;;;;;5072702;28;20219;-80
2022/11/12 00:44:57;;;;;;;13.03;8.30;;;8.20;1.00;;;;;;5072677;28;20198;-82
2022/11/12 00:47:24;;;;;;;14.13;8.27;;;8.20;1.00;;;;;;5072855;28;20201;-81
2022/11/12 00:49:51;;;;;;;14.03;9.07;;;8.10;1.00;;;;;;5070063;28;20201;-82
2022/11/12 00:52:19;;;;;;;17.17;8.43;;;8.10;99.90;;;;;;5072806;28;20203;-82
2022/11/12 00:54:47;;;;;;;14.30;8.53;;;8.10;99.90;;;;;;5072695;28;20211;-80
2022/11/12 00:57:14;;;;;;;18.67;9.03;;;8.20;99.90;;;;;;5072522;28;20205;-81
2022/11/12 00:59:41;;;;;;;19.80;9.40;;;8.20;99.90;;;;;;5072667;28;20198;-82
2022/11/12 01:02:08;;;;;;;16.83;8.80;;;8.20;99.90;;;;;;5072240;28;20538;-79
2022/11/12 01:04:35;;;;;;;14.87;8.53;;;8.20;1.00;;;;;;5072291;28;20198;-80
2022/11/12 01:07:02;;;;;;;11.60;7.80;;;8.30;1.00;;;;;;5072230;28;20186;-80
2022/11/12 01:09:29;;;;;;;16.70;8.57;;;8.20;99.90;;;;;;5072274;28;20231;-80
2022/11/12 01:11:58;;;;;;;16.73;8.30;;;8.20;99.90;;;;;;5071334;28;20201;-81
2022/11/12 01:14:25;;;;;;;15.10;8.23;;;8.20;1.00;;;;;;5072382;28;20193;-80
2022/11/12 01:16:52;;;;;;;12.83;7.93;;;8.30;1.00;;;;;;5072675;28;20283;-83
2022/11/12 01:19:19;;;;;;;13.67;8.67;;;8.30;99.90;;;;;;5072478;28;20199;-80
2022/11/12 01:21:46;;;;;;;14.07;8.43;;;8.30;99.90;;;;;;5072424;28;20211;-80
2022/11/12 01:24:13;;;;;;;14.67;8.73;;;8.30;99.90;;;;;;5072095;28;20202;-82
2022/11/12 01:26:40;;;;;;;19.57;8.83;;;8.40;99.90;;;;;;5072059;28;20199;-80
2022/11/12 01:29:09;;;;;;;15.27;8.60;;;8.40;15.00;;;;;;5071793;28;20580;-80
2022/11/12 01:31:38;;;;;;;15.23;9.07;;;8.30;1.00;;;;;;5072113;28;20594;-82
2022/11/12 01:34:07;;;;;;;16.27;9.10;;;8.20;23.10;;;;;;5072057;28;20212;-79
2022/11/12 01:36:36;;;;;;;15.57;8.70;;;8.20;38.10;;;;;;5072258;28;20188;-81
2022/11/12 01:39:04;;;;;;;13.60;8.80;;;8.20;1.00;;;;;;5072105;28;20633;-79
2022/11/12 01:41:33;;;;;;;19.67;9.33;;;8.20;32.80;;;;;;5072074;28;20247;-80
2022/11/12 01:44:10;;;;;;;13.90;9.10;;;8.10;53.00;;;;;;5071745;28;20657;-83
2022/11/12 01:46:46;;;;;;;17.10;9.20;;;8.10;1.00;;;;;;5071923;28;20642;-81
2022/11/12 01:49:17;;;;;;;16.20;8.87;;;8.10;1.00;;;;;;5071775;28;20270;-80
2022/11/12 01:51:49;;;;;;;14.60;9.07;;;8.10;1.00;;;;;;5066812;28;20647;-83
2022/11/12 01:54:19;;;;;;;13.90;8.73;;;8.10;1.00;;;;;;5071935;28;20189;-80
2022/11/12 01:56:47;;;;;;;17.97;9.50;;;8.10;1.00;;;;;;5071976;28;20193;-81
2022/11/12 01:59:21;;;;;;;20.23;9.20;;;8.20;1.00;;;;;;5071919;28;20192;-80
2022/11/12 02:01:48;;;;;;;19.10;10.17;;;8.20;1.00;;;;;;5071328;28;20579;-79
2022/11/12 02:04:16;;;;;;;14.33;8.57;;;8.20;1.00;;;;;;5071911;28;20196;-79
2022/11/12 02:06:45;;;;;;;16.97;8.90;;;8.20;1.00;;;;;;5071595;28;20189;-79
2022/11/12 02:09:13;;;;;;;17.50;9.10;;;8.30;1.00;;;;;;5071602;28;20676;-82
2022/11/12 02:11:40;;;;;;;15.23;8.60;;;8.30;1.00;;;;;;5071777;28;20217;-81
2022/11/12 02:14:07;;;;;;;14.10;9.07;;;8.40;1.00;;;;;;5071873;28;20194;-79
2022/11/12 02:16:38;;;;;;;15.00;8.67;;;8.40;1.00;;;;;;5071698;28;20553;-81
2022/11/12 02:19:07;;;;;;;16.53;9.03;;;8.50;1.00;;;;;;5071928;28;20198;-82
2022/11/12 02:21:36;;;;;;;15.10;8.87;;;8.50;1.00;;;;;;5071511;28;20273;-79
2022/11/12 02:24:05;;;;;;;15.23;9.07;;;8.60;1.00;;;;;;5075441;28;20192;-80
2022/11/12 02:26:35;;;;;;;14.07;8.70;;;8.60;1.00;;;;;;5074791;28;20591;-80
2022/11/12 02:29:03;;;;;;;13.17;8.63;;;8.60;99.90;;;;;;5065604;28;20261;-80
2022/11/12 02:31:30;;;;;;;15.87;8.27;;;8.70;99.90;;;;;;5064309;28;20225;-79
2022/11/12 02:33:57;;;;;;;13.93;8.00;;;8.70;99.90;;;;;;5063421;28;20248;-82
2022/11/12 02:36:25;;;;;;;13.37;8.23;;;8.70;99.90;;;;;;5060893;28;20244;-79
2022/11/12 02:38:53;;;;;;;13.43;7.93;;;8.70;99.90;;;;;;5055111;28;20205;-81
2022/11/12 02:41:20;;;;;;;12.57;7.97;;;8.70;99.90;;;;;;5058936;28;20668;-79
2022/11/12 02:43:47;;;;;;;16.70;8.47;;;8.70;99.90;;;;;;5064984;28;20251;-80
2022/11/12 02:46:15;;;;;;;11.63;8.27;;;8.70;99.90;;;;;;5055716;28;20226;-79
2022/11/12 02:48:42;;;;;;;16.10;8.90;;;8.70;99.90;;;;;;5071138;28;20223;-80
2022/11/12 02:51:10;;;;;;;13.33;8.83;;;8.70;99.90;;;;;;5070528;28;20202;-79
2022/11/12 02:53:37;;;;;;;14.23;8.33;;;8.70;99.90;;;;;;5074806;28;20671;-79
2022/11/12 02:56:06;;;;;;;15.33;8.87;;;8.80;99.90;;;;;;5075191;28;20193;-79
2022/11/12 02:58:33;;;;;;;16.67;9.50;;;8.80;99.90;;;;;;5075138;28;20191;-80
2022/11/12 03:01:00;;;;;;;14.63;8.47;;;8.80;99.90;;;;;;5066794;28;20245;-79
2022/11/12 03:03:27;;;;;;;16.70;8.80;;;8.80;99.90;;;;;;5056953;28;20191;-79
2022/11/12 03:05:56;;;;;;;15.37;8.37;;;8.80;99.90;;;;;;5059220;28;20197;-80
2022/11/12 03:08:24;;;;;;;12.47;8.00;;;8.80;99.90;;;;;;5074506;28;20243;-79
2022/11/12 03:10:51;;;;;;;16.13;8.17;;;8.80;99.90;;;;;;5062183;28;20614;-79
2022/11/12 03:13:20;;;;;;;15.07;8.03;;;8.80;99.90;;;;;;5073408;28;20194;-80
2022/11/12 03:15:47;;;;;;;14.40;8.17;;;8.90;99.90;;;;;;5074783;28;20195;-81
2022/11/12 03:18:14;;;;;;;12.30;8.07;;;8.80;99.90;;;;;;5071395;28;20195;-79
2022/11/12 03:20:42;;;;;;;14.93;8.17;;;8.80;99.90;;;;;;5063538;28;20621;-79
2022/11/12 03:23:10;;;;;;;12.60;8.30;;;8.90;99.90;;;;;;5074248;28;20202;-79
2022/11/12 03:25:38;;;;;;;14.77;8.77;;;8.90;99.90;;;;;;5074031;28;20599;-79
2022/11/12 03:28:06;;;;;;;17.47;9.00;;;8.80;73.30;;;;;;5074665;28;20205;-79
2022/11/12 03:30:37;;;;;;;14.20;8.40;;;8.80;85.70;;;;;;5074413;28;20188;-79
2022/11/12 03:33:05;;;;;;;15.97;8.70;;;8.80;55.20;;;;;;5074412;28;20237;-80
2022/11/12 03:35:33;;;;;;;15.30;8.83;;;8.80;20.20;;;;;;5067923;28;20194;-82
2022/11/12 03:38:01;;;;;;;17.60;9.90;;;8.80;31.60;;;;;;5065837;28;20282;-82
2022/11/12 03:40:29;;;;;;;17.37;10.40;;;8.80;7.90;;;;;;5073914;28;20247;-79
2022/11/12 03:42:56;;;;;;;21.13;10.60;;;8.80;1.00;;;;;;5073965;28;20724;-79
2022/11/12 03:45:25;;;;;;;20.53;11.33;;;8.90;1.00;;;;;;5073950;28;20616;-79
2022/11/12 03:47:56;;;;;;;17.70;10.90;;;8.80;1.00;;;;;;5074368;28;20197;-79
2022/11/12 03:50:24;;;;;;;21.40;11.13;;;8.80;1.00;;;;;;5073983;28;20207;-79
2022/11/12 03:52:53;;;;;;;19.00;10.90;;;8.80;1.00;;;;;;5073484;28;20608;-80
2022/11/12 03:55:22;;;;;;;16.73;9.63;;;8.80;1.00;;;;;;5073933;28;20247;-81
2022/11/12 03:57:50;;;;;;;14.63;10.00;;;8.90;1.00;;;;;;5073830;28;20283;-80
2022/11/12 04:00:18;;;;;;;15.17;9.60;;;8.90;1.00;;;;;;5073535;28;20609;-79
2022/11/12 04:02:45;;;;;;;15.97;9.47;;;8.80;1.00;;;;;;5073795;28;20310;-82
2022/11/12 04:10:44;;;;;;;17.37;9.63;;;8.90;1.00;;;;;;5059591;28;20202;-80
2022/11/12 04:13:29;;;;;;;17.07;9.97;;;8.80;1.00;;;;;;5059470;28;20653;-81
2022/11/12 04:27:07;;;;;;;16.57;9.77;;;8.90;1.00;;;;;;5062235;28;20203;-79
2022/11/12 04:32:19;;;;;;;13.13;8.60;;;8.90;1.00;;;;;;5073020;28;20237;-81
2022/11/12 04:34:46;;;;;;;14.90;9.43;;;8.90;1.00;;;;;;5072888;28;20591;-79
2022/11/12 04:37:15;;;;;;;15.80;10.57;;;8.90;1.00;;;;;;5073197;28;20254;-79
2022/11/12 04:39:42;;;;;;;16.67;9.33;;;8.90;1.00;;;;;;5072912;28;20247;-79
2022/11/12 04:45:02;;;;;;;14.90;9.63;;;8.90;1.00;;;;;;5072600;28;20691;-80
2022/11/12 04:47:32;;;;;;;14.53;8.97;;;8.90;1.00;;;;;;5073185;28;20212;-79
2022/11/12 04:49:59;;;;;;;18.17;10.20;;;8.90;1.00;;;;;;5072795;28;20219;-79
2022/11/12 04:52:29;;;;;;;20.43;11.30;;;8.80;1.00;;;;;;5072435;28;20199;-79
2022/11/12 04:54:57;;;;;;;18.97;11.57;;;8.80;1.00;;;;;;5072924;28;20256;-79
2022/11/12 04:57:25;;;;;;;19.60;11.33;;;8.90;1.00;;;;;;5072859;28;20221;-80
2022/11/12 04:59:52;;;;;;;21.53;10.77;;;8.90;1.00;;;;;;5072653;28;20232;-79
2022/11/12 05:02:19;;;;;;;19.53;11.57;;;8.80;1.00;;;;;;5072593;28;20198;-79
2022/11/12 05:04:46;;;;;;;20.20;11.33;;;8.80;1.00;;;;;;5072679;28;20196;-79
2022/11/12 05:07:14;;;;;;;16.63;11.47;;;8.80;1.00;;;;;;5072326;28;20198;-80
2022/11/12 05:09:43;;;;;;;19.13;11.63;;;8.80;18.20;;;;;;5067188;28;20245;-82
2022/11/12 05:12:10;;;;;;;21.37;12.33;;;8.80;62.20;;;;;;5072646;28;20202;-80
2022/11/12 05:14:37;;;;;;;20.90;12.80;;;8.80;56.30;;;;;;5072517;28;20196;-80
2022/11/12 05:17:05;;;;;;;19.93;11.87;;;8.90;99.90;;;;;;5072195;28;20194;-80
2022/11/12 05:19:33;;;;;;;21.30;12.60;;;8.90;99.90;;;;;;5072190;28;20252;-79
2022/11/12 05:22:06;;;;;;;19.20;12.03;;;8.90;99.90;;;;;;5071996;28;20590;-80
2022/11/12 05:24:36;;;;;;;22.40;11.83;;;8.90;99.90;;;;;;5072123;28;20223;-79
2022/11/12 05:27:06;;;;;;;16.97;10.50;;;8.90;99.90;;;;;;5072371;28;20202;-79
2022/11/12 05:29:34;;;;;;;15.93;10.27;;;8.90;99.90;;;;;;5072214;28;20612;-79
2022/11/12 05:32:01;;;;;;;17.60;9.47;;;8.90;99.90;;;;;;5071835;28;20740;-79
2022/11/12 05:34:28;;;;;;;14.97;9.73;;;8.90;99.90;;;;;;5072024;28;20199;-79
2022/11/12 05:36:55;;;;;;;14.67;9.37;;;8.90;99.90;;;;;;5071923;28;20535;-82
2022/11/12 05:39:22;;;;;;;14.47;9.83;;;8.90;99.90;;;;;;5072234;28;20642;-81
2022/11/12 05:41:50;;;;;;;17.67;10.50;;;8.90;99.90;;;;;;5072009;28;20252;-79
2022/11/12 05:44:18;;;;;;;18.50;9.87;;;8.90;99.90;;;;;;5072239;28;20246;-79
2022/11/12 05:46:45;;;;;;;17.07;10.57;;;8.90;99.90;;;;;;5071969;28;20199;-80
2022/11/12 05:49:13;;;;;;;18.10;9.03;;;8.80;99.90;;;;;;5071903;28;20624;-80
2022/11/12 05:51:40;;;;;;;20.10;9.83;;;8.90;99.90;;;;;;5072018;28;20255;-79
2022/11/12 05:54:07;;;;;;;15.83;9.43;;;8.90;99.90;;;;;;5071634;28;20248;-80
2022/11/12 05:56:35;;;;;;;15.53;8.53;;;9.00;99.90;;;;;;5071722;28;20198;-80
2022/11/12 05:59:05;;;;;;;14.60;9.13;;;8.90;99.90;;;;;;5071418;28;20225;-83
2022/11/12 06:01:34;;;;;;;14.40;10.00;;;9.00;99.90;;;;;;5071432;28;20263;-80
2022/11/12 06:04:01;;;;;;;14.30;9.40;;;8.90;99.90;;;;;;5071661;28;20202;-80
2022/11/12 06:06:28;;;;;;;18.00;9.93;;;9.00;99.90;;;;;;5071984;28;20583;-81
2022/11/12 06:08:55;;;;;;;16.67;10.30;;;9.00;99.90;;;;;;5071695;28;20264;-80
2022/11/12 06:11:22;;;;;;;14.67;9.30;;;9.00;99.90;;;;;;5064436;28;20205;-80
2022/11/12 06:13:49;;;;;;;12.57;9.30;;;9.10;99.90;;;;;;5071196;28;20252;-82
2022/11/12 06:16:16;;;;;;;18.43;12.67;;;9.10;99.90;;;;;;5071963;28;20199;-80
2022/11/12 06:18:45;;;;;;;19.60;13.07;;;9.10;99.90;;;;;;5071755;28;20654;-83
2022/11/12 06:21:21;;;;;;;22.63;13.27;;;9.10;99.90;;;;;;5071520;28;20199;-79
2022/11/12 06:23:53;;;;;;;20.90;11.97;;;9.10;99.90;;;;;;5071843;28;20226;-80
2022/11/12 06:26:21;;;;;;;19.50;10.63;;;9.10;32.30;;;;;;5071581;28;20250;-80
2022/11/12 06:28:49;;;;;;;23.23;10.87;;;9.10;1.00;;;;;;5071556;28;20195;-80
2022/11/12 06:31:16;;;;;;;22.40;12.40;;;9.10;1.00;;;;;;5071531;28;20193;-80
2022/11/12 06:33:45;;;;;;;19.03;11.90;;;9.10;56.50;;;;;;5071779;28;20196;-80
2022/11/12 06:36:14;;;;;;;21.03;12.27;;;9.10;99.90;;;;;;5071770;28;20199;-80
2022/11/12 06:38:42;;;;;;;18.00;10.47;;;9.10;99.90;;;;;;5071183;28;20281;-81
2022/11/12 06:41:10;;;;;;;21.47;11.20;;;9.10;99.90;;;;;;5071181;28;20203;-82
2022/11/12 06:43:38;;;;;;;15.93;10.23;;;9.10;99.90;;;;;;5071239;28;20247;-81
2022/11/12 06:46:08;;;;;;;17.60;10.43;;;9.20;99.90;;;;;;5071203;28;20734;-82
2022/11/12 06:48:35;;;;;;;21.77;11.03;;;9.20;99.90;;;;;;5071657;28;20230;-82
2022/11/12 06:51:16;;;;;;;21.13;10.43;;;9.20;99.90;;;;;;5070886;28;20261;-80
2022/11/12 06:53:43;;;;;;;18.53;10.10;;;9.20;99.90;;;;;;5071308;28;20192;-80
2022/11/12 06:56:12;;;;;;;18.77;10.80;;;9.20;91.10;;;;;;5082873;28;20244;-82
2022/11/12 06:58:40;;;;;;;15.80;10.80;;;9.30;1.00;;;;;;5073244;28;20250;-82
2022/11/12 07:01:09;;;;;;;22.47;13.20;;;9.30;74.20;;;;;;5071448;28;20253;-80
2022/11/12 07:03:36;;;;;;;22.40;14.03;;;9.30;57.00;;;;;;5070924;28;20571;-82
2022/11/12 07:06:05;;;;;;;20.93;13.93;;;9.20;98.90;;;;;;5071037;28;20204;-80
2022/11/12 07:08:34;;;;;;;21.77;13.33;;;9.30;99.90;;;;;;5070985;28;20659;-79
2022/11/12 07:11:01;;;;;;;23.60;15.37;;;9.30;99.90;;;;;;5060529;28;20274;-81
2022/11/12 07:13:31;;;;;;;22.93;14.13;;;9.30;99.90;;;;;;5074911;28;20197;-80
2022/11/12 07:15:59;;;;;;;25.97;14.57;;;9.40;99.90;;;;;;5074337;28;20354;-80
2022/11/12 07:18:27;;;;;;;22.67;14.40;;;9.40;99.90;;;;;;5074942;28;20660;-81
2022/11/12 07:20:59;;;;;;;24.27;13.33;;;9.60;99.90;;;;;;5074236;28;20192;-82
2022/11/12 07:23:27;;;;;;;19.03;13.00;;;9.60;99.90;;;;;;5064542;28;20226;-80
2022/11/12 07:26:00;;;;;;;25.70;14.40;;;9.70;99.90;;;;;;5075710;28;20199;-82
2022/11/12 07:28:29;;;;;;;32.00;17.90;;;9.80;98.60;;;;;;5074727;28;20199;-81
2022/11/12 07:30:57;;;;;;;24.23;14.93;;;9.90;1.00;;;;;;5074883;28;20216;-78
2022/11/12 07:33:25;;;;;;;25.27;14.77;;;9.90;1.00;;;;;;5073881;28;20568;-79
2022/11/12 07:36:02;;;;;;;24.53;14.27;;;10.00;1.00;;;;;;5074163;28;20199;-80
2022/11/12 07:38:31;;;;;;;26.43;15.43;;;10.00;1.00;;;;;;5076961;28;20253;-82
2022/11/12 07:41:04;;;;;;;23.43;14.90;;;10.10;1.00;;;;;;5074171;28;20205;-79
2022/11/12 07:43:32;;;;;;;28.03;15.93;;;10.20;1.00;;;;;;5063850;28;20614;-81
2022/11/12 07:45:59;;;;;;;22.97;14.50;;;10.30;1.00;;;;;;5074104;28;20202;-79
2022/11/12 07:48:27;;;;;;;27.20;15.13;;;10.30;1.00;;;;;;5073978;28;20217;-79
2022/11/12 07:50:59;;;;;;;26.80;15.87;;;10.40;1.00;;;;;;5077202;28;20213;-80
2022/11/12 07:53:26;;;;;;;31.73;16.60;;;10.40;1.00;;;;;;5073825;28;20339;-83
2022/11/12 07:55:54;;;;;;;24.57;13.90;;;10.40;1.00;;;;;;5077944;28;20176;-78
2022/11/12 07:58:24;;;;;;;26.87;14.70;;;10.40;1.00;;;;;;5073816;28;20284;-81
2022/11/12 08:00:51;;;;;;;27.77;16.20;;;10.40;1.00;;;;;;5074026;28;20256;-82
2022/11/12 08:03:19;;;;;;;25.77;16.60;;;10.40;1.00;;;;;;5074109;28;20194;-77
2022/11/12 08:05:47;;;;;;;24.57;15.27;;;10.40;1.00;;;;;;5069967;28;20537;-80
2022/11/12 08:08:14;;;;;;;23.23;15.73;;;10.40;1.00;;;;;;5065085;28;20197;-78
2022/11/12 08:10:42;;;;;;;27.97;15.93;;;10.50;1.00;;;;;;5052983;28;20221;-78
2022/11/12 08:13:09;;;;;;;27.90;18.13;;;10.50;1.00;;;;;;5055857;28;20302;-82
2022/11/12 08:15:38;;;;;;;24.40;16.40;;;10.50;1.00;;;;;;5077389;28;20201;-80
2022/11/12 08:18:05;;;;;;;26.87;16.33;;;10.50;1.00;;;;;;5058891;28;20240;-81
2022/11/12 08:20:32;;;;;;;34.10;18.73;;;10.60;1.00;;;;;;5052628;28;20203;-80
2022/11/12 08:23:00;;;;;;;98.73;64.40;;;10.60;99.90;;;;;;5061377;28;20586;-81
2022/11/12 08:25:27;;;;;;;71.20;51.40;;;10.70;1.00;;;;;;5072541;28;20206;-77
2022/11/12 08:27:57;;;;;;;83.73;50.90;;;10.80;1.00;;;;;;5072782;28;20723;-78
2022/11/12 08:30:25;;;;;;;60.70;41.40;;;10.90;99.90;;;;;;5073161;28;20682;-78
2022/11/12 08:32:57;;;;;;;149.03;75.27;;;11.10;99.90;;;;;;5072963;28;20283;-79
2022/11/12 08:35:25;;;;;;;56.83;26.87;;;11.10;99.90;;;;;;5073023;28;20840;-79
2022/11/12 08:37:52;;;;;;;82.50;35.97;;;11.20;1.00;;;;;;5073309;28;20742;-81
2022/11/12 08:40:19;;;;;;;86.93;36.37;;;11.30;1.00;;;;;;5073446;28;20645;-78
2022/11/12 08:42:46;;;;;;;88.77;41.73;;;11.30;1.00;;;;;;5072962;28;20612;-79
2022/11/12 08:45:13;;;;;;;36.20;19.50;;;11.30;1.00;;;;;;5073195;28;20252;-78
2022/11/12 08:47:40;;;;;;;45.47;25.53;;;11.30;1.00;;;;;;5073227;28;20256;-79
2022/11/12 08:50:10;;;;;;;44.70;23.67;;;11.30;1.00;;;;;;5072475;28;20218;-79
2022/11/12 08:52:37;;;;;;;32.13;18.70;;;11.30;1.00;;;;;;5072575;28;20191;-79
2022/11/12 08:55:05;;;;;;;23.10;14.63;;;11.30;1.00;;;;;;5072697;28;20651;-81
2022/11/12 08:57:32;;;;;;;20.77;12.73;;;11.40;1.00;;;;;;5072516;28;20786;-80
2022/11/12 08:59:59;;;;;;;29.47;18.10;;;11.40;1.00;;;;;;5072404;28;20247;-79
2022/11/12 09:02:26;;;;;;;28.30;15.60;;;11.40;1.00;;;;;;5072885;28;20199;-82
2022/11/12 09:04:53;;;;;;;41.10;23.70;;;11.40;1.00;;;;;;5068034;28;20193;-82
2022/11/12 09:07:22;;;;;;;27.27;16.30;;;11.50;99.90;;;;;;5071826;28;20228;-80
2022/11/12 09:09:49;;;;;;;26.17;15.87;;;11.30;99.90;;;;;;5066348;28;20246;-87
2022/11/12 09:12:18;;;;;;;42.80;25.80;;;11.20;99.90;;;;;;5071646;28;20685;-84
2022/11/12 09:14:45;;;;;;;27.23;14.67;;;11.20;1.00;;;;;;5067108;28;20199;-85
2022/11/12 09:17:12;;;;;;;51.03;38.13;;;11.30;1.00;;;;;;5063601;28;20202;-82
2022/11/12 09:19:41;;;;;;;35.43;20.63;;;11.30;1.00;;;;;;5057873;28;20208;-86
2022/11/12 09:22:09;;;;;;;20.93;14.57;;;11.30;1.00;;;;;;5068191;28;20220;-87
2022/11/12 09:24:37;;;;;;;26.03;17.80;;;11.40;1.00;;;;;;5063700;28;20196;-87
2022/11/12 09:27:05;;;;;;;23.07;14.60;;;11.50;99.90;;;;;;5053849;28;20195;-89
2022/11/12 09:29:33;;;;;;;27.50;15.97;;;11.60;99.90;;;;;;5062295;28;20198;-88
2022/11/12 09:32:05;;;;;;;22.73;14.63;;;11.60;99.90;;;;;;5060645;28;20227;-91
2022/11/12 09:34:32;;;;;;;25.87;16.77;;;11.70;1.00;;;;;;5057971;28;20699;-88
2022/11/12 09:36:59;;;;;;;21.30;13.13;;;11.90;99.90;;;;;;5051532;28;20539;-87
2022/11/12 09:39:27;;;;;;;21.17;15.40;;;12.00;99.90;;;;;;5057599;28;20206;-88
2022/11/12 09:41:58;;;;;;;20.07;14.40;;;12.10;99.90;;;;;;5054857;28;20577;-87
2022/11/12 09:44:26;;;;;;;70.47;35.83;;;12.20;99.90;;;;;;5056130;28;20526;-79
2022/11/12 09:46:59;;;;;;;27.97;17.53;;;12.30;99.90;;;;;;5058424;28;20201;-82
2022/11/12 09:49:32;;;;;;;19.17;11.80;;;12.40;99.90;;;;;;5054331;28;20206;-82
2022/11/12 09:52:04;;;;;;;19.73;14.17;;;12.60;99.90;;;;;;5054720;28;20689;-82
2022/11/12 09:54:33;;;;;;;19.80;14.23;;;12.80;7.30;;;;;;5051651;28;20190;-82
2022/11/12 09:57:02;;;;;;;126.07;76.47;;;13.00;1.00;;;;;;5052694;28;20282;-83
2022/11/12 09:59:33;;;;;;;28.97;16.80;;;13.10;1.00;;;;;;5051431;28;20220;-82
2022/11/12 10:02:22;;;;;;;21.03;14.20;;;13.20;1.00;;;;;;5052146;28;20566;-82
2022/11/12 10:05:18;;;;;;;51.73;27.43;;;13.30;1.00;;;;;;5056588;28;20539;-79
2022/11/12 10:08:02;;;;;;;49.73;22.47;;;13.40;1.00;;;;;;5058930;28;20659;-80
2022/11/12 10:10:39;;;;;;;39.10;19.47;;;13.50;1.00;;;;;;5055170;28;20920;-80
2022/11/12 10:13:23;;;;;;;42.53;20.07;;;13.60;1.00;;;;;;5071552;28;20193;-79
2022/11/12 10:19:13;;;;;;;25.60;14.63;;;13.50;99.90;;;;;;5063667;28;20666;-79
2022/11/12 10:21:47;;;;;;;15.87;10.50;;;13.50;1.00;;;;;;5070870;28;20194;-77
2022/11/12 10:24:14;;;;;;;17.00;10.30;;;13.60;99.90;;;;;;5070434;28;20193;-78
2022/11/12 10:26:41;;;;;;;18.13;9.67;;;13.70;99.90;;;;;;5071415;28;20206;-78
2022/11/12 10:29:17;;;;;;;20.70;11.10;;;13.80;99.90;;;;;;5071900;28;20207;-82
2022/11/12 10:31:44;;;;;;;20.90;13.13;;;13.70;99.90;;;;;;5071535;28;20234;-77
2022/11/12 10:34:20;;;;;;;20.00;12.33;;;13.70;99.90;;;;;;5071904;28;20199;-77
2022/11/12 10:36:51;;;;;;;17.87;10.00;;;13.70;99.90;;;;;;5071371;28;20197;-79
2022/11/12 10:39:40;;;;;;;18.80;11.03;;;13.70;99.90;;;;;;5071864;28;20259;-78
2022/11/12 10:42:10;;;;;;;19.97;11.90;;;13.70;99.90;;;;;;5054876;28;20609;-80
2022/11/12 10:44:39;;;;;;;14.93;11.17;;;13.70;99.90;;;;;;5074298;28;20671;-80
2022/11/12 10:47:26;;;;;;;23.87;12.27;;;13.60;99.90;;;;;;5075457;28;20198;-79
2022/11/12 10:50:04;;;;;;;29.87;15.40;;;13.60;99.90;;;;;;5075298;28;20695;-77
2022/11/12 10:52:31;;;;;;;50.00;26.90;;;13.50;99.90;;;;;;5075453;28;20195;-80
2022/11/12 10:55:07;;;;;;;18.63;10.90;;;13.50;99.90;;;;;;5078387;28;20229;-80
2022/11/12 10:57:34;;;;;;;20.20;10.70;;;13.50;99.90;;;;;;5067419;28;20192;-79
2022/11/12 11:00:19;;;;;;;16.90;11.50;;;13.60;99.90;;;;;;5075024;28;20249;-78
2022/11/12 11:02:50;;;;;;;42.23;25.23;;;13.60;99.90;;;;;;5063570;28;20618;-77
2022/11/12 11:05:36;;;;;;;17.47;11.53;;;13.70;99.90;;;;;;5073436;28;20289;-78
2022/11/12 11:08:04;;;;;;;103.90;68.00;;;13.70;99.90;;;;;;5070694;28;20203;-78
2022/11/12 11:10:33;;;;;;;25.27;15.83;;;13.80;99.90;;;;;;5063016;28;20222;-77
2022/11/12 11:13:20;;;;;;;27.87;18.03;;;13.80;99.90;;;;;;5073175;28;20610;-79
2022/11/12 11:16:03;;;;;;;21.33;13.30;;;13.90;99.90;;;;;;5074568;28;20213;-79
2022/11/12 11:18:33;;;;;;;13.90;9.47;;;13.90;99.90;;;;;;5074594;28;20199;-78
2022/11/12 11:21:13;;;;;;;19.30;14.67;;;14.00;99.90;;;;;;5074649;28;20263;-78
2022/11/12 11:23:47;;;;;;;21.43;13.87;;;14.00;99.90;;;;;;5074648;28;20646;-79
2022/11/12 11:26:26;;;;;;;14.43;9.90;;;14.00;99.90;;;;;;5074838;28;20249;-79
2022/11/12 11:29:00;;;;;;;66.27;40.07;;;13.90;99.90;;;;;;5074697;28;20257;-78
2022/11/12 11:31:39;;;;;;;17.43;10.87;;;14.00;99.90;;;;;;5074287;28;20276;-79
2022/11/12 11:34:20;;;;;;;48.33;35.37;;;13.90;70.30;;;;;;5074471;28;20195;-79
2022/11/12 11:36:58;;;;;;;32.77;25.57;;;13.90;35.50;;;;;;5074552;28;20590;-78
2022/11/12 11:39:37;;;;;;;26.60;18.80;;;13.80;5.90;;;;;;5074667;28;20268;-77
2022/11/12 11:42:17;;;;;;;35.83;25.47;;;13.70;99.90;;;;;;5061799;28;20188;-78
2022/11/12 11:44:53;;;;;;;25.80;17.90;;;13.80;99.90;;;;;;5073750;28;20191;-79
2022/11/12 11:47:35;;;;;;;20.07;15.73;;;13.80;89.80;;;;;;5076064;28;20190;-79
2022/11/12 11:50:27;;;;;;;28.50;22.27;;;13.80;99.90;;;;;;5074007;28;20195;-78
2022/11/12 11:53:15;;;;;;;26.80;18.63;;;13.80;99.90;;;;;;5072134;28;20196;-79
2022/11/12 11:55:53;;;;;;;25.30;15.60;;;13.80;99.90;;;;;;5063272;28;20189;-77
2022/11/12 11:58:48;;;;;;;43.13;24.80;;;13.80;97.00;;;;;;5073579;28;20231;-80
2022/11/12 12:01:20;;;;;;;22.63;15.50;;;13.90;99.90;;;;;;5073078;28;20240;-79
2022/11/12 12:04:28;;;;;;;25.23;18.00;;;13.90;65.10;;;;;;5070705;28;20204;-80
2022/11/12 12:07:08;;;;;;;23.67;17.03;;;13.80;75.90;;;;;;5072155;28;20202;-82
2022/11/12 12:09:47;;;;;;;30.37;24.93;;;13.80;99.90;;;;;;5069394;28;20184;-81
2022/11/12 12:12:31;;;;;;;17.20;12.27;;;13.80;99.90;;;;;;5066238;28;20211;-80
2022/11/12 12:15:09;;;;;;;20.03;13.07;;;13.80;99.90;;;;;;5074009;28;20186;-80
2022/11/12 12:17:48;;;;;;;15.27;10.97;;;13.90;99.90;;;;;;5073775;28;20195;-81
2022/11/12 12:20:22;;;;;;;24.90;18.83;;;13.90;99.90;;;;;;5073937;28;20197;-79
2022/11/12 12:22:53;;;;;;;33.17;24.63;;;13.90;99.90;;;;;;5073750;28;20250;-80
2022/11/12 12:25:24;;;;;;;25.27;19.20;;;13.90;99.90;;;;;;5073744;28;20196;-79
2022/11/12 12:27:57;;;;;;;20.13;15.33;;;13.90;99.90;;;;;;5073451;28;20598;-81
2022/11/12 12:30:25;;;;;;;15.37;10.13;;;13.90;99.90;;;;;;5073891;28;20199;-79
2022/11/12 12:32:56;;;;;;;25.87;16.37;;;13.90;99.90;;;;;;5073265;28;20232;-81
2022/11/12 12:35:30;;;;;;;21.40;15.23;;;13.90;99.90;;;;;;5073409;28;20245;-79
2022/11/12 12:38:06;;;;;;;25.23;14.97;;;13.80;99.90;;;;;;5070374;28;20191;-83
2022/11/12 12:40:35;;;;;;;41.67;27.10;;;13.80;99.90;;;;;;5067355;28;20236;-83
2022/11/12 12:43:07;;;;;;;38.87;26.60;;;13.80;99.90;;;;;;5073809;28;20225;-80
2022/11/12 12:45:41;;;;;;;40.63;31.27;;;13.80;99.90;;;;;;5073301;28;20192;-82
2022/11/12 12:48:15;;;;;;;31.90;24.47;;;13.80;99.90;;;;;;5073409;28;20227;-84
2022/11/12 12:50:45;;;;;;;20.60;14.10;;;13.80;99.90;;;;;;5073066;28;20588;-85
2022/11/12 12:53:34;;;;;;;19.97;13.40;;;13.80;99.90;;;;;;5073371;28;20243;-80
2022/11/12 12:56:03;;;;;;;20.23;14.07;;;13.80;99.90;;;;;;5060791;28;20191;-79
2022/11/12 12:58:32;;;;;;;25.27;18.07;;;13.90;99.90;;;;;;5073204;28;20648;-79
2022/11/12 13:01:02;;;;;;;22.50;16.47;;;13.90;99.90;;;;;;5065468;28;20201;-80
2022/11/12 13:04:02;;;;;;;31.10;20.80;;;13.90;99.90;;;;;;5072963;28;20195;-82
2022/11/12 13:06:34;;;;;;;21.17;15.20;;;13.80;99.90;;;;;;5020514;28;20193;-83
2022/11/12 13:09:04;;;;;;;17.77;10.97;;;13.80;99.90;;;;;;5051166;28;20224;-79
2022/11/12 13:15:21;;;;;;;20.57;14.67;;;13.80;99.90;;;;;;5073989;28;20327;-80
2022/11/12 13:17:50;;;;;;;16.53;12.07;;;13.80;99.90;;;;;;5072503;28;20254;-84
2022/11/12 13:20:41;;;;;;;23.73;15.20;;;13.80;99.90;;;;;;5072285;28;20221;-86
2022/11/12 13:23:32;;;;;;;22.90;12.27;;;13.70;99.90;;;;;;5072217;28;20648;-81
2022/11/12 13:26:32;;;;;;;16.57;10.13;;;13.70;99.90;;;;;;5072128;28;20241;-81